Time;durP1;ratioP1;P1;durP2;ratioP2;P2;SDS_P1;SDS_P2;PMS_P1;PMS_P2;Temp;Humidity;BMP_temperature;BMP_pressure;BME280_temperature;BME280_humidity;BME280_pressure;Samples;Min_cycle;Max_cycle;Signal;HPM_P1;HPM_P2
2022/01/29 00:00:30;;;;;;;52.33;28.40;;;6.20;86.40;;;;;;4992535;28;20061;-88
2022/01/29 00:02:57;;;;;;;47.58;29.00;;;6.20;86.40;;;;;;4992328;28;20495;-88
2022/01/29 00:05:24;;;;;;;45.40;28.38;;;6.20;86.40;;;;;;4993558;28;20056;-90
2022/01/29 00:07:51;;;;;;;47.75;28.88;;;6.20;86.40;;;;;;4993214;28;20074;-88
2022/01/29 00:10:19;;;;;;;45.72;28.40;;;6.20;86.40;;;;;;4990917;28;20057;-88
2022/01/29 00:12:46;;;;;;;49.80;29.25;;;6.30;86.50;;;;;;4992407;28;20047;-89
2022/01/29 00:15:13;;;;;;;48.30;26.70;;;6.30;86.50;;;;;;4993637;28;20046;-88
2022/01/29 00:17:40;;;;;;;46.25;28.45;;;6.30;86.50;;;;;;4993879;28;20049;-88
2022/01/29 00:20:08;;;;;;;44.05;26.55;;;6.30;86.50;;;;;;4978182;28;20419;-89
2022/01/29 00:22:35;;;;;;;45.58;28.42;;;6.30;86.50;;;;;;4990985;28;20051;-88
2022/01/29 00:25:02;;;;;;;42.78;27.80;;;6.30;86.50;;;;;;4997182;28;20427;-88
2022/01/29 00:27:34;;;;;;;40.40;25.00;;;6.30;86.60;;;;;;4996258;28;20042;-88
2022/01/29 00:30:08;;;;;;;46.55;25.88;;;6.40;86.60;;;;;;4995971;28;20065;-88
2022/01/29 00:32:36;;;;;;;42.20;26.05;;;6.40;86.60;;;;;;4996168;28;20049;-88
2022/01/29 00:35:04;;;;;;;43.08;27.60;;;6.40;86.60;;;;;;4996155;28;20057;-88
2022/01/29 00:37:32;;;;;;;38.13;24.98;;;6.40;86.60;;;;;;4994723;28;20486;-88
2022/01/29 00:39:59;;;;;;;41.33;25.90;;;6.40;86.60;;;;;;4998376;28;20054;-88
2022/01/29 00:42:26;;;;;;;37.88;24.40;;;6.40;86.60;;;;;;4997095;28;20076;-88
2022/01/29 00:44:53;;;;;;;39.38;25.75;;;6.40;86.70;;;;;;4996958;28;20052;-88
2022/01/29 00:47:20;;;;;;;38.50;26.02;;;6.40;86.70;;;;;;4996845;28;20047;-88
2022/01/29 00:49:47;;;;;;;42.78;25.67;;;6.40;86.70;;;;;;4996258;28;20427;-88
2022/01/29 00:52:14;;;;;;;40.88;26.70;;;6.40;86.70;;;;;;4995859;28;20061;-88
2022/01/29 00:54:44;;;;;;;37.95;25.88;;;6.40;86.70;;;;;;4996882;28;20064;-88
2022/01/29 00:57:11;;;;;;;39.60;25.02;;;6.40;86.80;;;;;;4997066;28;20046;-89
2022/01/29 00:59:38;;;;;;;36.33;24.17;;;6.40;86.80;;;;;;4997027;28;20051;-88
2022/01/29 01:02:08;;;;;;;38.72;25.45;;;6.50;86.80;;;;;;4996930;28;20570;-88
2022/01/29 01:04:39;;;;;;;36.75;24.67;;;6.40;86.80;;;;;;4992070;28;20054;-88
2022/01/29 01:07:08;;;;;;;37.13;25.05;;;6.50;86.80;;;;;;4998143;28;20062;-91
2022/01/29 01:09:36;;;;;;;34.58;24.05;;;6.50;86.90;;;;;;4996404;28;20046;-88
2022/01/29 01:12:04;;;;;;;39.47;25.55;;;6.50;86.90;;;;;;4995268;28;20445;-88
2022/01/29 01:14:34;;;;;;;39.05;24.38;;;6.50;86.90;;;;;;4995601;28;20145;-88
2022/01/29 01:17:01;;;;;;;35.70;23.70;;;6.50;86.90;;;;;;4995208;28;20439;-88
2022/01/29 01:19:28;;;;;;;35.08;23.52;;;6.60;87.00;;;;;;4995270;28;20051;-88
2022/01/29 01:21:57;;;;;;;33.08;23.90;;;6.60;87.00;;;;;;4995020;28;20116;-89
2022/01/29 01:24:24;;;;;;;34.65;23.77;;;6.60;87.00;;;;;;4995024;28;20068;-88
2022/01/29 01:26:52;;;;;;;31.42;21.90;;;6.60;87.00;;;;;;4996182;28;20046;-88
2022/01/29 01:29:19;;;;;;;32.28;22.63;;;6.60;87.00;;;;;;4996256;28;20049;-89
2022/01/29 01:31:47;;;;;;;34.45;22.98;;;6.60;87.00;;;;;;4995522;28;20050;-89
2022/01/29 01:34:16;;;;;;;33.08;22.10;;;6.60;87.00;;;;;;4994192;28;20042;-88
2022/01/29 01:36:49;;;;;;;32.63;23.27;;;6.70;87.10;;;;;;4995985;28;20134;-89
2022/01/29 01:39:20;;;;;;;33.20;22.60;;;6.60;87.10;;;;;;4995900;28;20072;-88
2022/01/29 01:41:59;;;;;;;31.75;20.73;;;6.70;87.10;;;;;;4996001;28;20050;-87
2022/01/29 01:44:41;;;;;;;30.85;21.08;;;6.70;87.10;;;;;;4995847;28;20050;-88
2022/01/29 01:47:09;;;;;;;28.95;20.58;;;6.60;87.10;;;;;;4979526;28;20050;-88
2022/01/29 01:49:37;;;;;;;33.05;21.02;;;6.70;87.10;;;;;;4991008;28;20050;-88
2022/01/29 01:52:09;;;;;;;31.83;21.27;;;6.70;87.20;;;;;;4995831;28;20058;-88
2022/01/29 01:54:37;;;;;;;31.98;22.65;;;6.70;87.20;;;;;;4994615;28;20488;-88
2022/01/29 01:57:05;;;;;;;31.50;21.73;;;6.70;87.20;;;;;;4995819;28;20050;-88
2022/01/29 01:59:32;;;;;;;33.88;21.60;;;6.70;87.20;;;;;;4994682;28;20514;-87
2022/01/29 02:02:00;;;;;;;31.13;22.02;;;6.80;87.30;;;;;;4995666;28;20514;-88
2022/01/29 02:04:27;;;;;;;30.77;21.83;;;6.80;87.30;;;;;;4994334;28;20056;-88
2022/01/29 02:06:55;;;;;;;31.05;20.42;;;6.80;87.30;;;;;;4995152;28;20137;-88
2022/01/29 02:09:24;;;;;;;33.15;21.63;;;6.80;87.30;;;;;;4995288;28;20053;-88
2022/01/29 02:11:56;;;;;;;30.55;20.08;;;6.80;87.30;;;;;;4995371;28;20049;-89
2022/01/29 02:14:28;;;;;;;30.13;20.83;;;6.80;87.30;;;;;;4995549;28;20060;-88
2022/01/29 02:16:55;;;;;;;30.02;19.92;;;6.80;87.30;;;;;;4994224;28;20046;-88
2022/01/29 02:19:22;;;;;;;27.63;19.52;;;6.80;87.30;;;;;;4993081;28;20530;-88
2022/01/29 02:21:50;;;;;;;28.65;21.27;;;6.90;87.30;;;;;;4993947;28;20575;-89
2022/01/29 02:24:17;;;;;;;28.88;20.48;;;6.90;87.30;;;;;;4995076;28;20049;-88
2022/01/29 02:26:45;;;;;;;28.42;19.67;;;6.90;87.40;;;;;;5000961;28;20060;-89
2022/01/29 02:29:13;;;;;;;30.52;20.38;;;6.90;87.40;;;;;;4993952;28;20052;-87
2022/01/29 02:31:51;;;;;;;26.83;19.48;;;6.90;87.40;;;;;;4994016;28;20058;-88
2022/01/29 02:34:18;;;;;;;27.48;19.13;;;6.90;87.40;;;;;;4993943;28;20142;-88
2022/01/29 02:36:46;;;;;;;26.60;18.25;;;6.90;87.40;;;;;;4994945;28;20057;-87
2022/01/29 02:39:16;;;;;;;28.33;19.42;;;6.90;87.40;;;;;;4994988;28;20058;-87
2022/01/29 02:41:44;;;;;;;25.27;18.42;;;6.90;87.40;;;;;;4994795;28;20407;-88
2022/01/29 02:44:19;;;;;;;25.52;17.50;;;6.90;87.40;;;;;;4993291;28;20049;-87
2022/01/29 02:46:54;;;;;;;24.55;17.88;;;6.90;87.40;;;;;;4992417;28;20054;-87
2022/01/29 02:49:26;;;;;;;25.02;17.85;;;6.90;87.40;;;;;;4992454;28;20129;-89
2022/01/29 02:51:57;;;;;;;24.33;17.83;;;7.00;87.50;;;;;;4994650;28;20064;-87
2022/01/29 02:54:25;;;;;;;23.88;17.58;;;7.00;87.50;;;;;;4993192;28;20540;-88
2022/01/29 02:56:53;;;;;;;25.50;17.67;;;7.00;87.50;;;;;;4994450;28;20042;-87
2022/01/29 02:59:20;;;;;;;25.50;17.67;;;7.00;87.50;;;;;;4994517;28;20129;-88
2022/01/29 03:01:47;;;;;;;23.92;17.33;;;7.00;87.50;;;;;;4993389;28;20050;-88
2022/01/29 03:04:14;;;;;;;23.23;16.55;;;7.00;87.50;;;;;;4994326;28;20082;-88
2022/01/29 03:06:41;;;;;;;23.17;17.33;;;7.00;87.50;;;;;;4992930;28;20404;-88
2022/01/29 03:09:08;;;;;;;23.45;16.88;;;7.10;87.50;;;;;;4994233;28;20477;-88
2022/01/29 03:11:36;;;;;;;18.58;14.68;;;7.00;87.50;;;;;;4994154;28;20042;-90
2022/01/29 03:14:03;;;;;;;21.05;15.23;;;7.00;87.50;;;;;;4994256;28;20081;-88
2022/01/29 03:16:30;;;;;;;19.70;14.50;;;7.10;87.50;;;;;;4992030;28;20058;-88
2022/01/29 03:18:57;;;;;;;21.23;15.00;;;7.10;87.50;;;;;;4994112;28;20558;-88
2022/01/29 03:21:24;;;;;;;20.98;13.93;;;7.20;87.50;;;;;;4994190;28;20046;-88
2022/01/29 03:23:51;;;;;;;17.67;13.25;;;7.20;87.50;;;;;;4994072;28;20047;-88
2022/01/29 03:26:18;;;;;;;18.75;14.63;;;7.10;87.50;;;;;;4994018;28;20061;-88
2022/01/29 03:28:45;;;;;;;19.77;14.40;;;7.20;87.50;;;;;;4993362;28;20060;-88
2022/01/29 03:31:12;;;;;;;17.48;12.52;;;7.20;87.50;;;;;;4993579;28;20050;-87
2022/01/29 03:33:40;;;;;;;19.35;14.38;;;7.20;87.50;;;;;;4993206;28;20038;-88
2022/01/29 03:36:07;;;;;;;16.65;11.68;;;7.20;87.50;;;;;;4992738;28;20053;-88
2022/01/29 03:38:34;;;;;;;13.20;8.95;;;7.20;87.60;;;;;;4993941;28;20043;-88
2022/01/29 03:41:01;;;;;;;13.82;9.77;;;7.20;87.60;;;;;;4993928;28;20073;-88
2022/01/29 03:43:33;;;;;;;14.85;10.90;;;7.20;87.60;;;;;;4992853;28;20050;-89
2022/01/29 03:46:00;;;;;;;12.20;8.55;;;7.20;87.60;;;;;;4992232;28;20415;-88
2022/01/29 03:48:27;;;;;;;12.25;8.00;;;7.30;87.60;;;;;;4992577;28;20043;-89
2022/01/29 03:50:54;;;;;;;10.70;7.28;;;7.30;87.70;;;;;;4993734;28;20047;-88
2022/01/29 03:53:21;;;;;;;9.85;7.03;;;7.30;87.70;;;;;;4993962;28;20043;-88
2022/01/29 03:55:48;;;;;;;14.85;10.63;;;7.30;87.70;;;;;;4993172;28;20522;-88
2022/01/29 03:58:15;;;;;;;14.00;9.80;;;7.40;87.70;;;;;;4996959;28;20054;-89
2022/01/29 04:00:42;;;;;;;13.38;9.13;;;7.40;87.70;;;;;;4997455;28;20521;-88
2022/01/29 04:03:09;;;;;;;12.65;8.70;;;7.40;87.70;;;;;;4996454;28;20042;-88
2022/01/29 04:05:37;;;;;;;10.55;8.20;;;7.40;87.70;;;;;;4997676;28;20132;-88
2022/01/29 04:08:09;;;;;;;11.85;8.27;;;7.40;87.70;;;;;;4996343;28;20050;-87
2022/01/29 04:10:37;;;;;;;12.10;7.47;;;7.40;87.70;;;;;;4992010;28;20046;-87
2022/01/29 04:13:04;;;;;;;11.60;7.05;;;7.50;87.70;;;;;;4999183;28;20056;-88
2022/01/29 04:15:31;;;;;;;10.65;6.95;;;7.50;87.70;;;;;;4997114;28;20057;-87
2022/01/29 04:17:58;;;;;;;10.73;6.65;;;7.50;87.70;;;;;;4996292;28;20050;-88
2022/01/29 04:20:25;;;;;;;11.65;6.60;;;7.50;87.70;;;;;;4997321;28;20065;-88
2022/01/29 04:22:52;;;;;;;12.15;7.07;;;7.50;87.70;;;;;;4997304;28;20047;-88
2022/01/29 04:25:19;;;;;;;12.20;6.82;;;7.60;87.80;;;;;;4998533;28;20054;-87
2022/01/29 04:27:47;;;;;;;13.27;7.28;;;7.60;87.80;;;;;;4996211;28;20054;-88
2022/01/29 04:30:26;;;;;;;14.30;6.72;;;7.60;87.90;;;;;;4997105;28;20113;-88
2022/01/29 04:33:03;;;;;;;13.45;7.95;;;7.70;87.90;;;;;;4997182;28;20041;-87
2022/01/29 04:35:31;;;;;;;12.85;6.82;;;7.70;87.90;;;;;;4996043;28;20042;-87
2022/01/29 04:37:58;;;;;;;14.05;6.00;;;7.70;88.00;;;;;;4997152;28;20062;-88
2022/01/29 04:40:25;;;;;;;12.38;6.07;;;7.80;88.00;;;;;;4996197;28;20050;-87
2022/01/29 04:42:52;;;;;;;16.33;6.35;;;7.90;88.10;;;;;;4995347;28;20050;-87
2022/01/29 04:45:19;;;;;;;15.85;7.43;;;7.90;88.10;;;;;;4997013;28;20050;-88
2022/01/29 04:47:46;;;;;;;14.48;6.57;;;7.90;88.10;;;;;;4997160;28;20050;-87
2022/01/29 04:50:14;;;;;;;12.63;6.63;;;7.90;88.10;;;;;;4997002;28;20058;-89
2022/01/29 04:52:41;;;;;;;14.13;4.90;;;8.00;88.20;;;;;;4996212;28;20054;-88
2022/01/29 04:55:09;;;;;;;10.95;6.05;;;8.00;88.20;;;;;;4995339;28;20053;-87
2022/01/29 04:57:41;;;;;;;13.27;4.47;;;8.00;88.20;;;;;;4995191;28;20056;-88
2022/01/29 05:00:19;;;;;;;10.45;4.70;;;8.10;88.20;;;;;;4996610;28;20046;-88
2022/01/29 05:02:47;;;;;;;11.23;3.75;;;8.10;88.20;;;;;;4995347;28;20043;-88
2022/01/29 05:05:14;;;;;;;10.48;4.45;;;8.20;88.30;;;;;;4996624;28;20068;-89
2022/01/29 05:07:41;;;;;;;8.75;3.70;;;8.20;88.30;;;;;;4995183;28;20507;-88
2022/01/29 05:10:09;;;;;;;8.50;2.97;;;8.30;88.30;;;;;;4996596;28;20056;-87
2022/01/29 05:12:58;;;;;;;10.82;3.35;;;8.30;88.30;;;;;;4996091;28;20078;-87
2022/01/29 05:15:34;;;;;;;9.68;2.83;;;8.30;88.30;;;;;;4996504;28;20046;-86
2022/01/29 05:26:51;;;;;;;11.43;2.10;;;8.40;88.30;;;;;;4932837;28;20048;-89
2022/01/29 05:29:19;;;;;;;9.02;4.13;;;8.40;88.30;;;;;;4903168;29;20205;-89
2022/01/29 05:31:50;;;;;;;6.90;2.75;;;8.50;88.30;;;;;;4935238;29;20059;-90
2022/01/29 05:34:21;;;;;;;7.60;2.38;;;8.40;88.30;;;;;;4931066;29;20052;-89
2022/01/29 05:36:49;;;;;;;5.82;2.50;;;8.50;88.30;;;;;;4931756;29;20134;-89
2022/01/29 05:39:16;;;;;;;8.18;1.83;;;8.40;88.20;;;;;;4931892;29;20060;-89
2022/01/29 05:41:43;;;;;;;9.68;2.10;;;8.50;88.20;;;;;;4931477;29;20071;-88
2022/01/29 05:44:10;;;;;;;7.90;2.13;;;8.50;88.30;;;;;;4920124;29;20043;-87
2022/01/29 05:46:39;;;;;;;7.38;2.20;;;8.50;88.30;;;;;;4931361;29;20075;-88
2022/01/29 05:49:06;;;;;;;8.85;2.13;;;8.60;88.30;;;;;;4937317;29;20070;-87
2022/01/29 05:51:33;;;;;;;6.82;2.08;;;8.60;88.30;;;;;;4931380;29;20059;-88
2022/01/29 05:54:02;;;;;;;7.32;2.13;;;8.60;88.30;;;;;;4919891;29;20059;-87
2022/01/29 05:56:30;;;;;;;7.32;2.10;;;8.60;88.30;;;;;;4932707;29;20062;-87
2022/01/29 05:58:57;;;;;;;7.70;2.03;;;8.60;88.30;;;;;;4951551;28;20058;-87
2022/01/29 06:01:25;;;;;;;6.65;2.10;;;8.60;88.30;;;;;;4994939;28;20070;-88
2022/01/29 06:03:52;;;;;;;6.82;2.33;;;8.60;88.30;;;;;;4995525;28;20042;-86
2022/01/29 06:06:19;;;;;;;6.40;2.08;;;8.60;88.30;;;;;;4994265;28;20077;-87
2022/01/29 06:08:46;;;;;;;4.93;1.55;;;8.60;88.30;;;;;;4995056;28;20061;-87
2022/01/29 06:11:13;;;;;;;7.20;1.90;;;8.70;88.30;;;;;;4995251;28;20050;-87
2022/01/29 06:13:40;;;;;;;10.27;1.77;;;8.70;88.30;;;;;;4993188;28;20053;-88
2022/01/29 06:16:07;;;;;;;6.03;1.80;;;8.70;88.30;;;;;;4996910;28;20046;-87
2022/01/29 06:18:34;;;;;;;8.80;1.70;;;8.70;88.30;;;;;;4995096;28;20397;-87
2022/01/29 06:21:07;;;;;;;6.60;1.40;;;8.70;88.30;;;;;;4994626;28;20054;-87
2022/01/29 06:23:36;;;;;;;5.53;1.40;;;8.70;88.30;;;;;;4995111;28;20507;-87
2022/01/29 06:26:05;;;;;;;9.45;1.60;;;8.70;88.30;;;;;;4994682;28;20534;-89
2022/01/29 06:28:33;;;;;;;6.80;1.60;;;8.70;88.30;;;;;;4994373;28;20154;-88
2022/01/29 06:31:00;;;;;;;6.53;1.48;;;8.70;88.30;;;;;;4994870;28;20047;-88
2022/01/29 06:33:28;;;;;;;7.45;1.50;;;8.80;88.30;;;;;;4993861;28;20046;-88
2022/01/29 06:35:56;;;;;;;5.18;1.40;;;8.70;88.30;;;;;;4995002;28;20046;-88
2022/01/29 06:38:23;;;;;;;8.75;1.42;;;8.80;88.30;;;;;;4994551;28;20046;-87
2022/01/29 06:40:51;;;;;;;4.97;1.48;;;8.80;88.30;;;;;;4993480;28;20517;-88
2022/01/29 06:43:18;;;;;;;6.50;1.80;;;8.80;88.30;;;;;;4996139;28;20046;-88
2022/01/29 06:45:46;;;;;;;9.95;1.52;;;8.80;88.30;;;;;;4994627;28;20089;-88
2022/01/29 06:48:15;;;;;;;10.38;1.98;;;8.80;88.30;;;;;;4994821;28;20503;-88
2022/01/29 06:50:42;;;;;;;9.15;1.85;;;8.80;88.30;;;;;;4994733;28;20047;-87
2022/01/29 06:53:09;;;;;;;4.25;1.50;;;8.80;88.30;;;;;;4994671;28;20045;-87
2022/01/29 06:55:36;;;;;;;8.48;1.80;;;8.80;88.30;;;;;;5004726;28;20431;-87
2022/01/29 06:58:04;;;;;;;6.40;1.75;;;8.80;88.30;;;;;;4994369;28;20058;-87
2022/01/29 07:00:51;;;;;;;8.02;1.92;;;8.80;88.30;;;;;;4994648;28;20053;-87
2022/01/29 07:03:18;;;;;;;6.18;2.08;;;8.80;88.20;;;;;;4994324;28;20438;-89
2022/01/29 07:05:46;;;;;;;6.13;1.40;;;8.80;88.30;;;;;;4994166;28;20046;-88
2022/01/29 07:08:13;;;;;;;6.05;1.70;;;8.80;88.30;;;;;;4993782;28;20050;-87
2022/01/29 07:10:40;;;;;;;10.48;2.13;;;8.80;88.30;;;;;;4993369;28;20046;-89
2022/01/29 07:13:07;;;;;;;7.90;2.00;;;8.80;88.30;;;;;;4996014;28;20076;-87
2022/01/29 07:15:37;;;;;;;6.97;1.70;;;8.90;88.30;;;;;;4994173;28;20074;-87
2022/01/29 07:18:05;;;;;;;9.32;1.75;;;8.90;88.30;;;;;;4994078;28;20046;-87
2022/01/29 07:20:33;;;;;;;6.82;1.60;;;8.80;88.30;;;;;;4994195;28;20110;-88
2022/01/29 07:23:00;;;;;;;6.63;1.70;;;8.90;88.30;;;;;;4993858;28;20053;-88
2022/01/29 07:25:27;;;;;;;8.25;1.83;;;8.90;88.30;;;;;;4993507;28;20058;-87
2022/01/29 07:27:54;;;;;;;8.90;2.00;;;8.80;88.20;;;;;;4993913;28;20064;-88
2022/01/29 07:30:21;;;;;;;8.35;1.80;;;8.90;88.20;;;;;;4993815;28;20046;-87
2022/01/29 07:32:48;;;;;;;6.30;1.60;;;8.90;88.30;;;;;;4993762;28;20050;-88
2022/01/29 07:35:15;;;;;;;8.82;2.15;;;8.90;88.30;;;;;;4994162;28;20054;-89
2022/01/29 07:37:42;;;;;;;6.88;1.73;;;8.90;88.30;;;;;;4992757;28;20579;-88
2022/01/29 07:40:09;;;;;;;5.55;1.70;;;8.90;88.30;;;;;;4993780;28;20054;-88
2022/01/29 07:42:37;;;;;;;10.02;2.40;;;8.90;88.20;;;;;;4993779;28;20399;-87
2022/01/29 07:45:05;;;;;;;9.65;2.22;;;8.90;88.30;;;;;;4993799;28;20136;-88
2022/01/29 07:47:33;;;;;;;5.82;2.00;;;8.90;88.30;;;;;;4993680;28;20061;-88
2022/01/29 07:50:01;;;;;;;12.93;2.28;;;8.90;88.20;;;;;;4993879;28;20056;-87
2022/01/29 07:52:27;;;;;;;9.43;2.28;;;8.90;88.30;;;;;;4991514;28;20078;-87
2022/01/29 07:54:55;;;;;;;11.00;2.30;;;8.90;88.30;;;;;;4990769;28;20057;-86
2022/01/29 07:57:22;;;;;;;10.20;2.10;;;8.90;88.30;;;;;;4991173;28;20050;-87
2022/01/29 07:59:50;;;;;;;10.10;2.15;;;8.90;88.30;;;;;;4989525;28;20054;-87
2022/01/29 08:02:17;;;;;;;6.93;2.05;;;8.90;88.30;;;;;;4992163;28;20042;-86
2022/01/29 08:04:44;;;;;;;10.73;2.50;;;8.90;88.30;;;;;;4992508;28;20081;-87
2022/01/29 08:07:11;;;;;;;10.00;2.40;;;8.90;88.30;;;;;;4993744;28;20058;-88
2022/01/29 08:09:39;;;;;;;8.20;2.38;;;8.90;88.30;;;;;;4993373;28;20068;-89
2022/01/29 08:12:06;;;;;;;10.10;2.65;;;9.00;88.30;;;;;;4991447;28;20047;-89
2022/01/29 08:14:33;;;;;;;11.80;2.60;;;9.00;88.40;;;;;;4993385;28;20057;-87
2022/01/29 08:17:00;;;;;;;11.60;2.17;;;9.00;88.40;;;;;;4993143;28;20400;-87
2022/01/29 08:19:27;;;;;;;10.80;2.42;;;9.00;88.30;;;;;;4991366;28;20046;-88
2022/01/29 08:21:54;;;;;;;7.75;2.15;;;9.00;88.40;;;;;;4992513;28;20058;-88
2022/01/29 08:24:21;;;;;;;6.40;1.95;;;9.00;88.40;;;;;;4991779;28;20431;-86
2022/01/29 08:26:48;;;;;;;9.05;2.20;;;9.00;88.40;;;;;;4993132;28;20503;-87
2022/01/29 08:29:15;;;;;;;10.50;2.10;;;9.10;88.40;;;;;;4991943;28;20064;-88
2022/01/29 08:31:42;;;;;;;12.85;2.28;;;9.10;88.40;;;;;;4992205;28;20050;-87
2022/01/29 08:34:09;;;;;;;11.00;2.70;;;9.10;88.40;;;;;;4993010;28;20046;-87
2022/01/29 08:36:37;;;;;;;7.07;2.03;;;9.10;88.40;;;;;;4992378;28;20515;-87
2022/01/29 08:39:04;;;;;;;11.52;2.28;;;9.10;88.40;;;;;;4993013;28;20053;-88
2022/01/29 08:41:31;;;;;;;6.47;1.80;;;9.10;88.40;;;;;;4992873;28;20479;-87
2022/01/29 08:43:58;;;;;;;7.30;1.63;;;9.10;88.40;;;;;;4995600;28;20053;-87
2022/01/29 08:46:26;;;;;;;8.02;2.03;;;9.20;88.40;;;;;;4995451;28;20054;-87
2022/01/29 08:48:53;;;;;;;8.57;2.25;;;9.20;88.40;;;;;;4996215;28;20511;-87
2022/01/29 08:51:20;;;;;;;9.68;1.98;;;9.20;88.40;;;;;;4996074;28;20129;-86
2022/01/29 08:53:47;;;;;;;6.45;1.88;;;9.20;88.40;;;;;;4996753;28;20081;-87
2022/01/29 08:56:15;;;;;;;5.22;1.83;;;9.20;88.40;;;;;;4996586;28;20046;-87
2022/01/29 08:58:44;;;;;;;6.88;2.00;;;9.20;88.40;;;;;;4995114;28;20066;-87
2022/01/29 09:01:12;;;;;;;9.45;2.42;;;9.20;88.40;;;;;;4995393;28;20047;-87
2022/01/29 09:03:40;;;;;;;5.85;1.90;;;9.20;88.40;;;;;;4994904;28;20088;-88
2022/01/29 09:06:07;;;;;;;5.20;1.70;;;9.20;88.40;;;;;;4996015;28;20052;-87
2022/01/29 09:08:36;;;;;;;6.82;2.03;;;9.30;88.40;;;;;;4995091;28;20054;-87
2022/01/29 09:11:03;;;;;;;12.55;2.25;;;9.30;88.40;;;;;;4994984;28;20038;-87
2022/01/29 09:13:30;;;;;;;9.25;2.45;;;9.30;88.40;;;;;;4994991;28;20052;-87
2022/01/29 09:15:58;;;;;;;9.63;2.13;;;9.30;88.40;;;;;;4995387;28;20058;-86
2022/01/29 09:18:25;;;;;;;9.50;2.10;;;9.40;88.40;;;;;;4995452;28;20082;-88
2022/01/29 09:20:53;;;;;;;6.13;2.10;;;9.40;88.40;;;;;;4995740;28;20046;-87
2022/01/29 09:23:20;;;;;;;9.57;2.40;;;9.40;88.40;;;;;;4994889;28;20534;-88
2022/01/29 09:25:47;;;;;;;8.63;2.63;;;9.40;88.40;;;;;;4995094;28;20046;-87
2022/01/29 09:28:15;;;;;;;12.02;3.10;;;9.40;88.30;;;;;;4995212;28;20051;-88
2022/01/29 09:30:43;;;;;;;10.25;2.88;;;9.40;88.30;;;;;;4995957;28;20046;-90
2022/01/29 09:33:11;;;;;;;6.90;3.00;;;9.40;88.30;;;;;;4995333;28;20050;-90
2022/01/29 09:35:38;;;;;;;7.00;2.65;;;9.40;88.30;;;;;;4995413;28;20137;-89
2022/01/29 09:38:07;;;;;;;11.38;2.95;;;9.40;88.30;;;;;;4996674;28;20054;-88
2022/01/29 09:40:35;;;;;;;8.43;2.97;;;9.40;88.20;;;;;;4994963;28;20116;-88
2022/01/29 09:43:05;;;;;;;9.38;2.70;;;9.40;88.20;;;;;;4995270;28;20061;-88
2022/01/29 09:45:33;;;;;;;6.70;2.38;;;9.40;88.20;;;;;;4995618;28;20078;-88
2022/01/29 09:48:04;;;;;;;7.25;2.20;;;9.40;88.20;;;;;;4995131;28;20073;-88
2022/01/29 09:50:38;;;;;;;5.20;2.20;;;9.40;88.10;;;;;;4995435;28;20086;-87
2022/01/29 09:53:06;;;;;;;6.05;1.90;;;9.50;88.10;;;;;;4995524;28;20051;-88
2022/01/29 09:55:34;;;;;;;5.93;1.85;;;9.50;88.10;;;;;;4992211;28;20137;-86
2022/01/29 09:58:01;;;;;;;7.00;1.95;;;9.40;88.00;;;;;;4995562;28;20061;-88
2022/01/29 10:00:28;;;;;;;5.90;1.77;;;9.50;88.00;;;;;;4993906;28;20047;-88
2022/01/29 10:03:11;;;;;;;3.90;1.30;;;9.50;88.00;;;;;;4993933;28;20042;-87
2022/01/29 10:05:43;;;;;;;3.78;1.15;;;9.50;88.00;;;;;;4995536;28;20042;-88
2022/01/29 10:08:12;;;;;;;2.78;1.10;;;9.50;87.90;;;;;;4979885;28;20056;-88
2022/01/29 10:11:17;;;;;;;4.72;1.20;;;9.50;88.00;;;;;;4995169;28;20056;-87
2022/01/29 10:13:44;;;;;;;;;;;9.50;87.90;;;;;;4991762;28;20504;-87
2022/01/29 10:16:20;;;;;;;3.25;1.23;;;9.60;88.00;;;;;;4995070;28;19928;-88
2022/01/29 10:19:00;;;;;;;3.95;1.08;;;9.60;88.00;;;;;;4995209;28;20133;-88
2022/01/29 10:21:32;;;;;;;3.65;1.00;;;9.60;88.00;;;;;;4995196;28;20048;-89
2022/01/29 10:24:11;;;;;;;3.90;0.80;;;9.60;88.00;;;;;;4994983;28;20042;-88
2022/01/29 10:26:44;;;;;;;2.88;0.90;;;9.70;88.00;;;;;;4995041;28;20046;-87
2022/01/29 10:29:22;;;;;;;3.80;1.05;;;9.70;88.00;;;;;;4979205;28;20045;-87
2022/01/29 10:31:53;;;;;;;5.22;0.80;;;9.80;88.00;;;;;;4994412;28;20406;-88
2022/01/29 10:34:28;;;;;;;2.38;0.80;;;9.70;88.00;;;;;;4991132;28;20062;-87
2022/01/29 10:37:21;;;;;;;1.35;0.50;;;9.80;87.90;;;;;;4993880;28;20434;-86
2022/01/29 10:39:57;;;;;;;2.20;0.60;;;9.90;87.90;;;;;;4994975;28;20043;-86
2022/01/29 10:42:36;;;;;;;2.22;1.10;;;9.90;87.80;;;;;;4994664;28;20046;-86
2022/01/29 10:45:05;;;;;;;2.92;0.70;;;9.90;87.80;;;;;;4994413;28;20061;-87
2022/01/29 10:47:57;;;;;;;2.63;0.60;;;9.90;87.70;;;;;;4994609;28;20045;-87
2022/01/29 10:50:25;;;;;;;3.88;0.90;;;9.90;87.70;;;;;;4981290;28;20125;-87
2022/01/29 10:52:53;;;;;;;1.92;0.57;;;10.00;87.70;;;;;;4994498;28;20056;-87
2022/01/29 10:55:20;;;;;;;2.50;0.77;;;10.00;87.70;;;;;;4991647;28;20061;-86
2022/01/29 10:57:48;;;;;;;2.40;0.65;;;10.00;87.60;;;;;;4994532;28;20062;-87
2022/01/29 11:00:24;;;;;;;3.08;0.70;;;10.10;87.60;;;;;;4994066;28;20042;-88
2022/01/29 11:02:53;;;;;;;1.08;0.50;;;10.10;87.50;;;;;;4993189;28;20053;-87
2022/01/29 11:05:29;;;;;;;1.88;0.60;;;10.20;87.50;;;;;;4994211;28;20049;-86
2022/01/29 11:08:01;;;;;;;2.67;0.60;;;10.20;87.50;;;;;;4994099;28;20503;-86
2022/01/29 11:10:29;;;;;;;1.63;0.60;;;10.20;87.40;;;;;;4993684;28;20053;-88
2022/01/29 11:12:56;;;;;;;2.38;0.55;;;10.20;87.40;;;;;;4992997;28;20559;-88
2022/01/29 11:15:25;;;;;;;1.85;0.40;;;10.30;87.30;;;;;;4993772;28;20061;-86
2022/01/29 11:17:52;;;;;;;0.50;0.30;;;10.30;87.30;;;;;;4994231;28;20520;-86
2022/01/29 11:20:19;;;;;;;0.75;0.38;;;10.30;87.20;;;;;;4992971;28;20533;-85
2022/01/29 11:22:50;;;;;;;1.52;0.40;;;10.30;87.10;;;;;;4993248;28;20047;-86
2022/01/29 11:25:23;;;;;;;1.67;0.40;;;10.40;87.10;;;;;;4993485;28;20050;-86
2022/01/29 11:28:15;;;;;;;2.95;0.43;;;10.40;87.00;;;;;;4993966;28;20054;-86
2022/01/29 11:30:44;;;;;;;2.22;0.52;;;10.40;87.00;;;;;;4992443;28;20061;-86
2022/01/29 11:33:12;;;;;;;2.55;0.57;;;10.40;86.90;;;;;;4992828;28;20047;-86
2022/01/29 11:35:59;;;;;;;4.22;0.70;;;10.40;86.80;;;;;;4994028;28;20054;-86
2022/01/29 11:38:28;;;;;;;3.05;0.70;;;10.40;86.80;;;;;;4980962;28;20050;-86
2022/01/29 11:40:58;;;;;;;6.65;0.95;;;10.40;86.70;;;;;;4994295;28;20054;-87
2022/01/29 11:43:30;;;;;;;3.38;0.50;;;10.50;86.70;;;;;;4992729;28;20054;-86
2022/01/29 11:46:04;;;;;;;3.55;0.88;;;10.50;86.60;;;;;;4993998;28;20050;-86
2022/01/29 11:48:34;;;;;;;3.00;0.47;;;10.50;86.50;;;;;;4993720;28;20057;-86
2022/01/29 11:51:08;;;;;;;2.70;0.70;;;10.50;86.50;;;;;;4993751;28;20049;-86
2022/01/29 11:54:02;;;;;;;4.97;0.80;;;10.50;86.40;;;;;;4993757;28;20521;-86
2022/01/29 11:56:40;;;;;;;6.57;0.80;;;10.60;86.30;;;;;;4978851;28;20050;-86
2022/01/29 11:59:19;;;;;;;5.03;1.00;;;10.60;86.20;;;;;;4978104;28;20046;-86
2022/01/29 12:01:55;;;;;;;4.32;0.85;;;10.60;86.20;;;;;;4990143;28;20050;-86
2022/01/29 12:04:24;;;;;;;3.90;0.65;;;10.60;86.10;;;;;;4991282;28;20054;-85
2022/01/29 12:07:10;;;;;;;3.17;0.90;;;10.70;86.00;;;;;;4993342;28;20077;-85
2022/01/29 12:09:44;;;;;;;6.00;1.20;;;10.60;85.90;;;;;;4992466;28;20050;-86
2022/01/29 12:12:17;;;;;;;;;;;10.60;85.80;;;;;;4993757;28;20050;-86
2022/01/29 12:14:50;;;;;;;6.45;1.27;;;10.70;85.70;;;;;;4993563;28;19925;-86
2022/01/29 12:17:37;;;;;;;5.63;1.00;;;10.70;85.60;;;;;;4994066;28;20042;-86
2022/01/29 12:20:07;;;;;;;5.20;1.38;;;10.70;85.60;;;;;;4997411;28;20050;-86
2022/01/29 12:22:38;;;;;;;6.80;1.02;;;10.70;85.60;;;;;;4992780;28;20046;-86
2022/01/29 12:25:16;;;;;;;6.57;1.25;;;10.80;85.50;;;;;;4998762;28;20054;-86
2022/01/29 12:27:57;;;;;;;5.95;1.30;;;10.80;85.40;;;;;;4996911;28;20054;-86
2022/01/29 12:30:36;;;;;;;5.00;1.20;;;10.90;85.30;;;;;;4997309;28;20050;-86
2022/01/29 12:33:09;;;;;;;6.82;1.60;;;10.80;85.20;;;;;;4997135;28;20137;-86
2022/01/29 12:36:02;;;;;;;6.45;1.40;;;10.90;85.10;;;;;;4996131;28;20105;-86
2022/01/29 12:38:34;;;;;;;6.07;1.25;;;10.90;85.00;;;;;;4984848;28;20229;-86
2022/01/29 12:41:05;;;;;;;8.43;1.20;;;10.90;84.90;;;;;;4996836;28;20055;-86
2022/01/29 12:43:39;;;;;;;11.27;1.80;;;10.90;84.80;;;;;;4996230;28;20081;-85
2022/01/29 12:46:18;;;;;;;6.10;1.42;;;10.90;84.70;;;;;;4998536;28;20053;-86
2022/01/29 12:48:57;;;;;;;6.35;1.10;;;10.90;84.60;;;;;;4996897;28;20051;-86
2022/01/29 12:51:24;;;;;;;8.25;1.15;;;10.90;84.50;;;;;;4996799;28;20529;-87
2022/01/29 12:53:59;;;;;;;4.22;1.23;;;10.90;84.50;;;;;;4996782;28;20054;-86
2022/01/29 12:56:33;;;;;;;8.70;1.33;;;10.90;84.40;;;;;;4995358;28;20049;-87
2022/01/29 12:59:00;;;;;;;;;;;10.90;84.30;;;;;;4997268;28;20058;-86
2022/01/29 13:01:28;;;;;;;7.72;1.30;;;10.90;84.20;;;;;;4995840;28;19922;-86
2022/01/29 13:04:04;;;;;;;6.13;1.40;;;10.90;84.20;;;;;;4996622;28;20054;-86
2022/01/29 13:06:32;;;;;;;7.53;1.38;;;10.90;84.20;;;;;;4996614;28;20046;-87
2022/01/29 13:09:22;;;;;;;7.18;1.83;;;10.90;84.10;;;;;;4995071;28;20054;-86